createdAt,value
2018-03-21T00:00:00.420Z,-0.80
2018-03-21T00:02:28.713Z,-0.80
2018-03-21T00:04:57.247Z,-0.90
2018-03-21T00:07:25.780Z,-1.00
2018-03-21T00:09:54.109Z,-1.10
2018-03-21T00:12:22.404Z,-1.10
2018-03-21T00:17:21.064Z,-1.30
2018-03-21T00:19:49.389Z,-1.40
2018-03-21T00:22:17.653Z,-1.40
2018-03-21T00:24:45.974Z,-1.60
2018-03-21T00:27:14.325Z,-1.70
2018-03-21T00:29:42.623Z,-1.60
2018-03-21T00:32:11.001Z,-1.70
2018-03-21T00:34:39.269Z,-1.70
2018-03-21T00:37:08.293Z,-1.80
2018-03-21T00:39:36.585Z,-1.80
2018-03-21T00:42:04.877Z,-1.80
2018-03-21T00:44:33.160Z,-1.80
2018-03-21T00:47:01.426Z,-1.80
2018-03-21T00:49:29.797Z,-1.90
2018-03-21T00:51:58.192Z,-2.00
2018-03-21T00:54:26.565Z,-2.00
2018-03-21T00:56:54.921Z,-2.10
2018-03-21T00:59:23.222Z,-2.20
2018-03-21T01:01:51.600Z,-2.20
2018-03-21T01:04:19.888Z,-2.10
2018-03-21T01:06:48.156Z,-2.20
2018-03-21T01:09:17.204Z,-2.20
2018-03-21T01:11:45.484Z,-2.20
2018-03-21T01:14:13.751Z,-2.20
2018-03-21T01:16:42.797Z,-2.40
2018-03-21T01:19:11.267Z,-2.50
2018-03-21T01:21:39.524Z,-2.50
2018-03-21T01:24:08.562Z,-2.60
2018-03-21T01:26:36.821Z,-2.70
2018-03-21T01:29:05.135Z,-2.60
2018-03-21T01:31:33.425Z,-2.60
2018-03-21T01:34:02.468Z,-2.60
2018-03-21T01:36:30.744Z,-2.60
2018-03-21T01:38:59.118Z,-2.50
2018-03-21T01:41:27.500Z,-2.50
2018-03-21T01:43:55.981Z,-2.50
2018-03-21T01:46:24.442Z,-2.50
2018-03-21T01:48:53.545Z,-2.50
2018-03-21T01:51:21.885Z,-2.50
2018-03-21T01:53:50.173Z,-2.60
2018-03-21T01:56:18.532Z,-2.60
2018-03-21T01:58:48.317Z,-2.80
2018-03-21T02:01:16.637Z,-2.80
2018-03-21T02:03:44.944Z,-2.80
2018-03-21T02:08:42.878Z,-2.90
2018-03-21T02:11:11.916Z,-2.90
2018-03-21T02:13:40.188Z,-3.00
2018-03-21T02:16:08.473Z,-2.90
2018-03-21T02:18:36.725Z,-3.00
2018-03-21T02:21:05.036Z,-3.00
2018-03-21T02:23:34.057Z,-3.00
2018-03-21T02:26:03.106Z,-3.00
2018-03-21T02:28:31.376Z,-3.10
2018-03-21T02:30:59.736Z,-3.00
2018-03-21T02:33:29.183Z,-3.10
2018-03-21T02:35:57.782Z,-3.20
2018-03-21T02:38:26.088Z,-3.20
2018-03-21T02:40:54.476Z,-3.20
2018-03-21T02:43:22.772Z,-3.20
2018-03-21T02:45:51.142Z,-3.30
2018-03-21T02:48:19.414Z,-3.30
2018-03-21T02:50:47.680Z,-3.30
2018-03-21T02:53:16.697Z,-3.40
2018-03-21T02:55:45.783Z,-3.40
2018-03-21T02:58:14.126Z,-3.40
2018-03-21T03:00:42.424Z,-3.40
2018-03-21T03:03:10.696Z,-3.40
2018-03-21T03:05:39.080Z,-3.40
2018-03-21T03:08:07.368Z,-3.40
2018-03-21T03:10:35.641Z,-3.40
2018-03-21T03:13:04.660Z,-3.40
2018-03-21T03:15:32.937Z,-3.50
2018-03-21T03:18:01.968Z,-3.40
2018-03-21T03:20:30.375Z,-3.50
2018-03-21T03:22:59.436Z,-3.50
2018-03-21T03:25:28.558Z,-3.40
2018-03-21T03:27:57.674Z,-3.50
2018-03-21T03:30:26.003Z,-3.50
2018-03-21T03:32:55.111Z,-3.50
2018-03-21T03:35:23.422Z,-3.60
2018-03-21T03:37:51.696Z,-3.60
2018-03-21T03:40:19.972Z,-3.60
2018-03-21T03:42:48.222Z,-3.70
2018-03-21T03:45:16.528Z,-3.70
2018-03-21T03:47:44.967Z,-3.70
2018-03-21T03:50:13.299Z,-3.80
2018-03-21T03:52:41.560Z,-3.80
2018-03-21T03:55:09.887Z,-3.90
2018-03-21T03:57:38.134Z,-4.00
2018-03-21T04:00:06.408Z,-4.00
2018-03-21T04:02:34.699Z,-4.10
2018-03-21T04:05:02.972Z,-4.00
2018-03-21T04:07:31.403Z,-4.10
2018-03-21T04:09:59.730Z,-4.10
2018-03-21T04:12:28.023Z,-4.20
2018-03-21T04:14:56.427Z,-4.20
2018-03-21T04:17:25.718Z,-4.20
2018-03-21T04:19:54.017Z,-4.30
2018-03-21T04:22:22.321Z,-4.30
2018-03-21T04:24:50.596Z,-4.30
2018-03-21T04:27:18.880Z,-4.30
2018-03-21T04:29:47.148Z,-4.30
2018-03-21T04:32:16.189Z,-4.40
2018-03-21T04:34:44.671Z,-4.40
2018-03-21T04:37:12.961Z,-4.40
2018-03-21T04:39:41.221Z,-4.40
2018-03-21T04:42:10.356Z,-4.50
2018-03-21T04:44:38.608Z,-4.60
2018-03-21T04:47:07.346Z,-4.50
2018-03-21T04:49:35.618Z,-4.50
2018-03-21T04:52:04.652Z,-4.50
2018-03-21T04:54:32.922Z,-4.50
2018-03-21T04:57:02.011Z,-4.50
2018-03-21T04:59:31.051Z,-4.50
2018-03-21T05:01:59.383Z,-4.60
2018-03-21T05:04:28.461Z,-5.40
2018-03-21T05:06:56.792Z,-4.60
2018-03-21T05:09:25.108Z,-4.50
2018-03-21T05:11:53.406Z,-4.50
2018-03-21T05:14:21.714Z,-4.60
2018-03-21T05:16:49.976Z,-4.60
2018-03-21T05:19:19.005Z,-4.50
2018-03-21T05:21:47.276Z,-4.60
2018-03-21T05:24:15.581Z,-4.50
2018-03-21T05:26:45.691Z,-4.50
2018-03-21T05:29:14.807Z,-4.40
2018-03-21T05:31:44.030Z,-4.40
2018-03-21T05:34:12.313Z,-4.50
2018-03-21T05:36:42.096Z,-4.40
2018-03-21T05:39:11.158Z,-4.30
2018-03-21T05:41:39.442Z,-4.40
2018-03-21T05:44:07.724Z,-4.40
2018-03-21T05:46:36.004Z,-4.30
2018-03-21T05:49:05.142Z,-4.20
2018-03-21T05:51:33.416Z,-4.30
2018-03-21T05:54:01.701Z,-4.20
2018-03-21T05:56:30.057Z,-4.10
2018-03-21T05:58:58.492Z,-4.00
2018-03-21T06:03:56.621Z,-4.00
2018-03-21T06:06:24.905Z,-3.90
2018-03-21T06:08:53.209Z,-3.80
2018-03-21T06:11:21.492Z,-3.80
2018-03-21T06:13:49.783Z,-3.70
2018-03-21T06:16:18.052Z,-3.70
2018-03-21T06:18:46.408Z,-3.60
2018-03-21T06:21:14.737Z,-3.50
2018-03-21T06:23:43.072Z,-3.40
2018-03-21T06:26:11.336Z,-3.40
2018-03-21T06:28:39.617Z,-3.30
2018-03-21T06:31:07.877Z,-3.10
2018-03-21T06:33:36.915Z,-2.80
2018-03-21T06:36:05.209Z,-2.80
2018-03-21T06:38:33.493Z,-2.70
2018-03-21T06:41:02.917Z,-2.00
2018-03-21T06:43:31.217Z,-2.00
2018-03-21T06:45:59.595Z,-1.50
2018-03-21T06:48:27.985Z,-1.50
2018-03-21T06:50:56.442Z,-1.60
2018-03-21T06:53:25.511Z,-1.60
2018-03-21T06:55:54.672Z,-1.60
2018-03-21T06:58:23.045Z,-1.60
2018-03-21T07:00:52.085Z,-1.60
2018-03-21T07:03:20.385Z,-1.70
2018-03-21T07:05:48.652Z,-1.60
2018-03-21T07:08:16.962Z,-1.50
2018-03-21T07:10:45.341Z,-1.50
2018-03-21T07:13:13.610Z,-1.50
2018-03-21T07:16:00.301Z,-1.30
2018-03-21T07:18:28.639Z,-1.30
2018-03-21T07:20:56.970Z,-1.10
2018-03-21T07:23:25.974Z,-1.10
2018-03-21T07:25:54.295Z,-1.00
2018-03-21T07:28:22.611Z,-1.00
2018-03-21T07:30:50.903Z,-0.80
2018-03-21T07:33:19.170Z,-0.80
2018-03-21T07:35:48.189Z,-0.60
2018-03-21T07:38:17.367Z,-0.60
2018-03-21T07:40:45.671Z,-0.60
2018-03-21T07:43:14.857Z,-0.20
2018-03-21T07:45:43.212Z,-0.30
2018-03-21T07:48:11.504Z,-0.10
2018-03-21T07:50:39.766Z,0.00
2018-03-21T07:53:08.822Z,-0.20
2018-03-21T07:55:37.084Z,-0.30
2018-03-21T07:58:05.352Z,-0.10
2018-03-21T08:00:34.370Z,0.10
2018-03-21T08:03:02.672Z,0.10
2018-03-21T08:05:31.016Z,0.40
2018-03-21T08:07:59.380Z,0.40
2018-03-21T08:10:27.829Z,0.60
2018-03-21T08:12:56.293Z,0.90
2018-03-21T08:15:24.711Z,1.00
2018-03-21T08:17:53.013Z,1.10
2018-03-21T08:20:21.273Z,1.10
2018-03-21T08:25:19.196Z,0.80
2018-03-21T08:27:48.215Z,1.10
2018-03-21T08:30:16.481Z,1.00
2018-03-21T08:32:45.579Z,1.10
2018-03-21T08:35:13.896Z,1.10
2018-03-21T08:37:42.164Z,1.20
2018-03-21T08:40:11.948Z,1.00
2018-03-21T08:42:40.207Z,1.00
2018-03-21T08:52:09.328Z,1.30
2018-03-21T08:54:37.683Z,1.10
2018-03-21T08:57:05.931Z,1.00
2018-03-21T08:59:34.203Z,1.00
2018-03-21T09:02:02.451Z,0.90
2018-03-21T09:04:30.742Z,1.00
2018-03-21T09:06:59.788Z,1.00
2018-03-21T09:09:28.100Z,0.90
2018-03-21T09:11:56.460Z,1.00
2018-03-21T09:14:24.855Z,1.30
2018-03-21T09:16:53.147Z,1.50
2018-03-21T09:19:21.502Z,1.80
2018-03-21T09:21:49.747Z,2.20
2018-03-21T09:24:18.093Z,2.50
2018-03-21T09:26:46.394Z,2.90
2018-03-21T09:29:14.729Z,3.20
2018-03-21T09:31:43.774Z,3.10
2018-03-21T09:34:12.048Z,3.00
2018-03-21T09:36:41.069Z,2.60
2018-03-21T09:39:09.445Z,2.60
2018-03-21T09:41:37.664Z,2.60
2018-03-21T09:44:06.049Z,2.40
2018-03-21T09:46:34.339Z,2.20
2018-03-21T09:49:02.586Z,2.10
2018-03-21T09:51:30.874Z,2.00
2018-03-21T09:53:59.147Z,2.00
2018-03-21T09:56:28.220Z,1.80
2018-03-21T09:58:56.535Z,1.80
2018-03-21T10:01:24.915Z,1.80
2018-03-21T10:03:53.182Z,1.90
2018-03-21T10:06:21.490Z,2.10
2018-03-21T10:08:50.496Z,1.80
2018-03-21T10:11:18.774Z,1.80
2018-03-21T10:13:47.020Z,1.80
2018-03-21T10:16:16.053Z,1.90
2018-03-21T10:18:44.339Z,1.90
2018-03-21T10:21:13.769Z,2.30
2018-03-21T10:23:42.064Z,2.20
2018-03-21T10:26:10.343Z,2.60
2018-03-21T10:28:38.584Z,2.90
2018-03-21T10:31:06.870Z,3.20
2018-03-21T10:33:35.121Z,3.40
2018-03-21T10:36:03.414Z,3.60
2018-03-21T10:38:31.666Z,3.70
2018-03-21T10:41:00.709Z,3.70
2018-03-21T10:43:29.021Z,3.60
2018-03-21T10:45:57.332Z,3.70
2018-03-21T10:48:25.724Z,3.70
2018-03-21T10:50:54.834Z,3.10
2018-03-21T10:53:23.141Z,3.00
2018-03-21T10:55:51.392Z,3.00
2018-03-21T10:58:19.650Z,2.80
2018-03-21T11:00:47.927Z,2.60
2018-03-21T11:03:16.176Z,2.60
2018-03-21T11:05:44.479Z,2.40
2018-03-21T11:08:13.509Z,2.20
2018-03-21T11:10:41.786Z,2.10
2018-03-21T11:13:10.816Z,2.50
2018-03-21T11:15:39.068Z,2.40
2018-03-21T11:18:08.109Z,2.90
2018-03-21T11:20:37.208Z,3.00
2018-03-21T11:23:05.504Z,3.00
2018-03-21T11:25:33.751Z,3.30
2018-03-21T11:28:02.026Z,3.50
2018-03-21T11:30:30.365Z,3.50
2018-03-21T11:32:58.631Z,3.40
2018-03-21T11:35:27.684Z,3.40
2018-03-21T11:37:56.024Z,3.40
2018-03-21T11:40:24.373Z,3.20
2018-03-21T11:42:52.642Z,3.40
2018-03-21T11:45:20.901Z,3.70
2018-03-21T11:47:49.942Z,4.30
2018-03-21T11:50:18.192Z,4.20
2018-03-21T11:52:46.460Z,4.40
2018-03-21T11:55:14.795Z,4.20
2018-03-21T11:57:43.077Z,3.80
2018-03-21T12:00:11.362Z,3.50
2018-03-21T12:02:40.394Z,3.50
2018-03-21T12:05:08.641Z,3.40
2018-03-21T12:07:36.973Z,3.60
2018-03-21T12:10:06.026Z,3.30
2018-03-21T12:12:35.060Z,3.30
2018-03-21T12:15:04.077Z,3.50
2018-03-21T12:17:32.392Z,3.50
2018-03-21T12:20:00.659Z,3.50
2018-03-21T12:22:28.960Z,3.40
2018-03-21T12:24:57.363Z,3.40
2018-03-21T12:30:57.049Z,3.70
2018-03-21T12:33:25.403Z,3.80
2018-03-21T12:35:53.689Z,3.90
2018-03-21T12:38:21.955Z,3.90
2018-03-21T12:40:50.992Z,4.00
2018-03-21T12:43:19.250Z,3.90
2018-03-21T12:45:48.644Z,3.90
2018-03-21T12:48:16.929Z,3.80
2018-03-21T12:50:45.215Z,3.70
2018-03-21T12:53:13.509Z,3.70
2018-03-21T12:55:41.792Z,3.80
2018-03-21T12:58:10.059Z,3.90
2018-03-21T13:00:38.452Z,4.00
2018-03-21T13:03:06.713Z,4.10
2018-03-21T13:05:35.005Z,3.90
2018-03-21T13:08:03.264Z,3.80
2018-03-21T13:10:32.281Z,3.80
2018-03-21T13:13:01.688Z,3.90
2018-03-21T13:15:30.751Z,4.10
2018-03-21T13:17:59.071Z,4.00
2018-03-21T13:20:28.224Z,4.40
2018-03-21T13:22:56.577Z,4.30
2018-03-21T13:25:25.585Z,4.30
2018-03-21T13:27:54.660Z,4.20
2018-03-21T13:30:24.531Z,4.10
2018-03-21T13:32:52.781Z,4.10
2018-03-21T13:35:21.047Z,4.20
2018-03-21T13:37:49.322Z,4.10
2018-03-21T13:40:17.576Z,4.10
2018-03-21T13:42:45.852Z,4.20
2018-03-21T13:45:14.133Z,4.30
2018-03-21T13:47:42.409Z,4.40
2018-03-21T13:50:10.657Z,4.40
2018-03-21T13:52:39.030Z,4.40
2018-03-21T13:55:07.276Z,4.30
2018-03-21T13:57:35.530Z,4.30
2018-03-21T14:00:03.783Z,4.40
2018-03-21T14:02:32.023Z,4.50
2018-03-21T14:05:00.300Z,4.60
2018-03-21T14:07:28.587Z,4.50
2018-03-21T14:09:56.864Z,4.40
2018-03-21T14:12:25.949Z,4.50
2018-03-21T14:14:54.315Z,4.50
2018-03-21T14:17:23.364Z,4.70
2018-03-21T14:19:52.388Z,4.60
2018-03-21T14:22:20.640Z,4.60
2018-03-21T14:24:50.421Z,4.40
2018-03-21T14:27:19.688Z,4.50
2018-03-21T14:29:48.137Z,4.40
2018-03-21T14:32:17.196Z,4.40
2018-03-21T14:34:46.228Z,4.50
2018-03-21T14:37:14.612Z,4.50
2018-03-21T14:39:42.974Z,4.60
2018-03-21T14:42:11.293Z,4.60
2018-03-21T14:44:39.562Z,4.50
2018-03-21T14:47:08.583Z,4.50
2018-03-21T14:49:37.647Z,4.50
2018-03-21T14:52:05.885Z,4.40
2018-03-21T14:54:34.156Z,4.40
2018-03-21T14:57:03.181Z,4.50
2018-03-21T14:59:31.556Z,4.50
2018-03-21T15:02:00.631Z,4.70
2018-03-21T15:04:30.423Z,4.70
2018-03-21T15:06:58.678Z,4.70
2018-03-21T15:09:27.157Z,4.70
2018-03-21T15:11:55.504Z,4.60
2018-03-21T15:14:23.812Z,4.60
2018-03-21T15:16:52.064Z,4.60
2018-03-21T15:19:20.345Z,4.40
2018-03-21T15:21:49.463Z,4.40
2018-03-21T15:24:17.723Z,4.40
2018-03-21T15:26:46.749Z,4.60
2018-03-21T15:29:15.153Z,4.60
2018-03-21T15:31:43.397Z,4.60
2018-03-21T15:34:12.547Z,4.50
2018-03-21T15:36:40.805Z,4.50
2018-03-21T15:39:09.881Z,4.60
2018-03-21T15:41:38.238Z,4.60
2018-03-21T15:44:06.509Z,4.60
2018-03-21T15:46:35.523Z,4.60
2018-03-21T15:49:03.785Z,4.50
2018-03-21T15:51:32.111Z,4.50
2018-03-21T15:54:00.384Z,4.50
2018-03-21T15:56:29.536Z,4.40
2018-03-21T15:58:58.029Z,4.40
2018-03-21T16:01:26.461Z,4.40
2018-03-21T16:03:54.943Z,4.40
2018-03-21T16:06:24.517Z,4.40
2018-03-21T16:08:52.798Z,4.30
2018-03-21T16:11:21.088Z,4.30
2018-03-21T16:13:49.372Z,4.20
2018-03-21T16:16:17.673Z,4.30
2018-03-21T16:18:45.940Z,4.20
2018-03-21T16:21:15.065Z,4.10
2018-03-21T16:23:43.318Z,4.10
2018-03-21T16:26:11.605Z,4.00
2018-03-21T16:28:39.924Z,4.00
2018-03-21T16:31:08.295Z,3.90
2018-03-21T16:33:37.365Z,3.80
2018-03-21T16:36:05.829Z,3.80
2018-03-21T16:38:34.111Z,3.80
2018-03-21T16:41:03.199Z,3.70
2018-03-21T16:43:32.248Z,3.60
2018-03-21T16:46:00.715Z,3.60
2018-03-21T16:48:29.012Z,3.60
2018-03-21T16:50:57.527Z,3.50
2018-03-21T16:53:26.019Z,3.50
2018-03-21T16:55:54.427Z,3.50
2018-03-21T16:58:22.801Z,3.50
2018-03-21T17:00:51.878Z,3.30
2018-03-21T17:03:20.138Z,3.30
2018-03-21T17:05:48.474Z,3.20
2018-03-21T17:08:16.753Z,3.20
2018-03-21T17:10:45.087Z,3.00
2018-03-21T17:13:13.347Z,2.90
2018-03-21T17:15:41.629Z,2.80
2018-03-21T17:18:09.908Z,2.70
2018-03-21T17:20:38.960Z,2.70
2018-03-21T17:23:08.001Z,2.60
2018-03-21T17:25:36.272Z,2.50
2018-03-21T17:28:04.518Z,2.50
2018-03-21T17:30:32.868Z,2.40
2018-03-21T17:33:01.117Z,2.30
2018-03-21T17:35:29.400Z,2.20
2018-03-21T17:37:57.724Z,2.10
2018-03-21T17:40:26.093Z,1.90
2018-03-21T17:42:55.970Z,1.60
2018-03-21T17:45:25.085Z,1.60
2018-03-21T17:47:53.392Z,1.50
2018-03-21T17:50:21.689Z,1.50
2018-03-21T17:55:19.589Z,1.30
2018-03-21T17:57:47.838Z,1.30
2018-03-21T18:00:16.152Z,1.20
2018-03-21T18:02:44.414Z,1.20
2018-03-21T18:05:12.704Z,1.10
2018-03-21T18:07:40.976Z,1.00
2018-03-21T18:10:09.227Z,0.80
2018-03-21T18:12:37.492Z,0.60
2018-03-21T18:15:06.529Z,0.30
2018-03-21T18:17:34.792Z,0.30
2018-03-21T18:20:03.806Z,0.10
2018-03-21T18:22:32.840Z,0.00
2018-03-21T18:25:01.151Z,-0.10
2018-03-21T18:27:29.428Z,-0.20
2018-03-21T18:29:57.719Z,-0.30
2018-03-21T18:32:26.121Z,-0.40
2018-03-21T18:34:54.405Z,-0.50
2018-03-21T18:37:22.689Z,-0.60
2018-03-21T18:39:50.960Z,-0.60
2018-03-21T18:42:19.232Z,-0.70
2018-03-21T18:44:48.253Z,-0.80
2018-03-21T18:47:16.580Z,-0.90
2018-03-21T18:49:44.866Z,-0.90
2018-03-21T18:52:14.277Z,-1.00
2018-03-21T18:54:42.546Z,-1.00
2018-03-21T18:57:10.833Z,-1.00
2018-03-21T18:59:39.110Z,-1.00
2018-03-21T19:02:07.438Z,-1.10
2018-03-21T19:04:35.723Z,-1.10
2018-03-21T19:07:04.006Z,-1.10
2018-03-21T19:09:32.260Z,-1.10
2018-03-21T19:14:30.169Z,-1.30
2018-03-21T19:16:58.470Z,-1.20
2018-03-21T19:19:26.868Z,-1.30
2018-03-21T19:21:55.218Z,-1.30
2018-03-21T19:24:24.277Z,-1.40
2018-03-21T19:26:52.560Z,-1.40
2018-03-21T19:29:20.821Z,-1.40
2018-03-21T19:31:49.893Z,-1.50
2018-03-21T19:34:18.147Z,-1.50
2018-03-21T19:36:46.510Z,-1.50
2018-03-21T19:39:14.781Z,-1.50
2018-03-21T19:41:43.836Z,-1.60
2018-03-21T19:44:12.106Z,-1.60
2018-03-21T19:46:40.363Z,-1.60
2018-03-21T19:49:09.421Z,-1.70
2018-03-21T19:51:37.687Z,-1.70
2018-03-21T19:54:06.097Z,-1.70
2018-03-21T19:56:34.282Z,-1.70
2018-03-21T19:59:04.101Z,-1.80
2018-03-21T20:01:32.367Z,-1.80
2018-03-21T20:04:01.419Z,-1.80
2018-03-21T20:06:29.673Z,-1.90
2018-03-21T20:08:58.012Z,-1.90
2018-03-21T20:11:26.339Z,-1.80
2018-03-21T20:13:55.536Z,-1.90
2018-03-21T20:16:23.820Z,-2.00
2018-03-21T20:18:52.097Z,-2.00
2018-03-21T20:21:20.362Z,-2.00
2018-03-21T20:23:48.665Z,-2.00
2018-03-21T20:26:17.729Z,-2.10
2018-03-21T20:28:46.782Z,-2.10
2018-03-21T20:31:15.076Z,-2.10
2018-03-21T20:33:44.154Z,-2.00
2018-03-21T20:36:12.443Z,-2.10
2018-03-21T20:38:40.735Z,-2.10
2018-03-21T20:41:09.013Z,-2.10
2018-03-21T20:43:38.054Z,-2.20
2018-03-21T20:46:06.325Z,-2.20
2018-03-21T20:48:34.623Z,-2.20
2018-03-21T20:51:02.950Z,-2.20
2018-03-21T20:53:31.196Z,-2.20
2018-03-21T20:55:59.552Z,-2.30
2018-03-21T20:58:28.677Z,-2.30
2018-03-21T21:00:56.954Z,-2.40
2018-03-21T21:03:25.307Z,-2.40
2018-03-21T21:05:53.626Z,-2.50
2018-03-21T21:08:22.661Z,-2.50
2018-03-21T21:10:50.940Z,-2.50
2018-03-21T21:13:20.719Z,-2.50
2018-03-21T21:15:48.997Z,-2.50
2018-03-21T21:18:18.023Z,-2.70
2018-03-21T21:20:46.359Z,-2.60
2018-03-21T21:23:14.691Z,-2.50
2018-03-21T21:25:42.970Z,-2.60
2018-03-21T21:28:12.011Z,-2.70
2018-03-21T21:30:41.060Z,-2.70
2018-03-21T21:33:09.323Z,-2.70
2018-03-21T21:35:38.395Z,-2.70
2018-03-21T21:38:06.668Z,-2.70
2018-03-21T21:40:35.011Z,-2.80
2018-03-21T21:43:04.032Z,-2.80
2018-03-21T21:45:33.072Z,-2.80
2018-03-21T21:48:01.424Z,-2.90
2018-03-21T21:50:30.552Z,-2.90
2018-03-21T21:55:28.629Z,-3.00
2018-03-21T21:57:56.947Z,-2.90
2018-03-21T22:00:25.384Z,-2.90
2018-03-21T22:02:54.456Z,-2.90
2018-03-21T22:05:22.752Z,-2.90
2018-03-21T22:07:51.079Z,-2.90
2018-03-21T22:10:20.149Z,-3.00
2018-03-21T22:12:48.442Z,-3.00
2018-03-21T22:15:16.792Z,-3.00
2018-03-21T22:17:45.844Z,-3.10
2018-03-21T22:20:14.112Z,-3.10
2018-03-21T22:22:42.393Z,-3.10
2018-03-21T22:25:10.646Z,-3.10
2018-03-21T22:27:38.924Z,-3.00
2018-03-21T22:30:07.188Z,-3.10
2018-03-21T22:32:35.466Z,-3.10
2018-03-21T22:35:03.749Z,-3.10
2018-03-21T22:37:32.139Z,-3.10
2018-03-21T22:40:00.462Z,-3.10
2018-03-21T22:42:28.769Z,-3.10
2018-03-21T22:44:57.135Z,-3.20
2018-03-21T22:47:25.581Z,-3.20
2018-03-21T22:49:53.949Z,-3.20
2018-03-21T22:52:22.233Z,-3.20
2018-03-21T22:54:50.485Z,-3.20
2018-03-21T22:57:18.756Z,-3.30
2018-03-21T22:59:47.013Z,-3.30
2018-03-21T23:02:15.391Z,-3.30
2018-03-21T23:04:43.695Z,-3.30
2018-03-21T23:07:12.768Z,-3.30
2018-03-21T23:09:41.023Z,-3.40
2018-03-21T23:12:09.289Z,-3.30
2018-03-21T23:14:38.705Z,-3.40
2018-03-21T23:17:08.376Z,-3.40
2018-03-21T23:19:36.660Z,-3.40
2018-03-21T23:22:04.937Z,-3.40
2018-03-21T23:24:33.208Z,-3.40
2018-03-21T23:27:01.544Z,-3.40
2018-03-21T23:29:29.861Z,-3.50
2018-03-21T23:31:58.202Z,-3.50
2018-03-21T23:34:26.526Z,-3.50
2018-03-21T23:36:55.668Z,-3.50
2018-03-21T23:39:24.863Z,-3.60
2018-03-21T23:41:53.978Z,-3.60
2018-03-21T23:44:23.999Z,-3.60
2018-03-21T23:46:53.797Z,-3.60
2018-03-21T23:49:22.860Z,-3.50
2018-03-21T23:51:52.253Z,-3.60
2018-03-21T23:54:20.560Z,-3.60
2018-03-21T23:56:49.603Z,-3.50
2018-03-21T23:59:17.880Z,-3.50
